Elizabeth Mc Allister — WDB7652 — position and weather

sailwx.info

Track history (hours):
 
Tides and Currents Weather Stations Pressure Air Temp Water Temp Dewpoint Dewpoint Depression Visibility Wind Speed Wind Dir Waves Ship Positions

Elizabeth Mc Allister

Owner: MC ALLISTER TOWING & TRANSPORTATION INC, NEW YORK, NY. More information available from US FCC via Universal Licensing System and Coast Guard Vessel Documentation Center.

Last reported at 2014-Nov-28 14:33 UTC. Time now 2014-Nov-28 14:36 UTC.
Position N 40°38' W 074°10'.

Length 31 m.

Type: Tug. MMSI: 366945680.

Date/timePositionNaut miles runAvg speedWind from/ knotsBaromVisibWave heightAir tempDewpointWater temp
2014-Nov-28 14:33N 40°38' W 074°10'0 0.0
2014-Nov-28 13:32N 40°38' W 074°10'2 2.2
2014-Nov-28 12:32N 40°40' W 074°08'1 0.9
2014-Nov-28 11:33N 40°41' W 074°09'3 2.8
2014-Nov-28 10:33N 40°39' W 074°07'2 2.0
2014-Nov-28 09:33N 40°38' W 074°10'0 0.0
2014-Nov-28 08:33N 40°38' W 074°10'0 0.0
2014-Nov-28 07:34N 40°38' W 074°10'6 3.9
2014-Nov-28 06:08N 40°33' W 074°13'5 2.8
2014-Nov-28 04:31N 40°38' W 074°12'0 0.0
2014-Nov-28 03:33N 40°38' W 074°12'2 1.8
2014-Nov-28 02:33N 40°38' W 074°10'0 0.0
2014-Nov-28 01:33N 40°38' W 074°10'0 0.0
2014-Nov-28 00:26N 40°38' W 074°10'0 0.0
2014-Nov-27 23:24N 40°38' W 074°10'0 0.0
2014-Nov-27 21:24N 40°38' W 074°10'0 0.0
2014-Nov-27 20:33N 40°38' W 074°10'0 0.0
2014-Nov-27 19:32N 40°38' W 074°10'0 0.0
2014-Nov-27 18:31N 40°38' W 074°10'0 0.0
2014-Nov-27 17:33N 40°38' W 074°10'0 0.0
2014-Nov-27 16:33N 40°38' W 074°10'0 0.0
2014-Nov-27 15:33N 40°38' W 074°10'0 0.0
2014-Nov-27 14:33N 40°38' W 074°10'0 0.0
2014-Nov-27 13:33N 40°38' W 074°10'1 1.4
2014-Nov-27 12:33N 40°38' W 074°12'0 0.1
2014-Nov-27 11:33N 40°38' W 074°12'0 0.0
2014-Nov-27 09:33N 40°38' W 074°12'0 0.0
2014-Nov-27 08:33N 40°38' W 074°12'0 0.0
2014-Nov-27 07:31N 40°38' W 074°12'6 6.2
2014-Nov-27 06:33N 40°40' W 074°04'0 0.4
2014-Nov-27 05:33N 40°40' W 074°04'0 0.0
2014-Nov-27 04:34N 40°40' W 074°04'0 0.0
2014-Nov-27 03:33N 40°40' W 074°04'0 0.0
2014-Nov-27 02:33N 40°40' W 074°04'0 0.0
2014-Nov-27 01:34N 40°40' W 074°04'0 0.0
2014-Nov-27 00:33N 40°40' W 074°04'0 0.4
2014-Nov-26 23:33N 40°40' W 074°04'2 1.9
2014-Nov-26 22:28N 40°39' W 074°07'0 0.1
2014-Nov-26 21:33N 40°39' W 074°07'0 0.5
2014-Nov-26 20:32N 40°39' W 074°06'2 2.3
2014-Nov-26 19:26N 40°40' W 074°09'0 0.1
2014-Nov-26 18:33N 40°40' W 074°09'0 0.4
2014-Nov-26 17:33N 40°39' W 074°09'1 1.1
2014-Nov-26 16:33N 40°38' W 074°10'0 0.0
2014-Nov-26 15:33N 40°38' W 074°10'0 0.0
2014-Nov-26 14:34N 40°38' W 074°10'0 0.0
2014-Nov-26 13:33N 40°38' W 074°10'0 0.0
2014-Nov-26 12:33N 40°38' W 074°10'1 0.7
2014-Nov-26 11:20N 40°39' W 074°11'5 6.6
2014-Nov-26 10:33N 40°39' W 074°04'2 1.7
2014-Nov-26 09:33N 40°39' W 074°06'3 2.7
2014-Nov-26 08:33N 40°38' W 074°10'0 0.0
2014-Nov-26 07:34N 40°38' W 074°10'0 0.0
2014-Nov-26 06:33N 40°38' W 074°10'0 0.0
2014-Nov-26 05:34N 40°38' W 074°10'0 0.0
2014-Nov-26 04:33N 40°38' W 074°10'0 0.0
2014-Nov-26 03:34N 40°38' W 074°10'0 0.0
2014-Nov-26 02:33N 40°38' W 074°10'0 0.0
2014-Nov-26 01:33N 40°38' W 074°10'0 0.0
2014-Nov-26 00:33N 40°38' W 074°10'0 0.0
2014-Nov-25 23:34N 40°38' W 074°10'0 0.0
2014-Nov-25 22:33N 40°38' W 074°10'5 5.0
2014-Nov-25 21:34N 40°38' W 074°03'5 4.9
2014-Nov-25 20:33N 40°38' W 074°10'0 0.0
2014-Nov-25 19:33N 40°38' W 074°10'2 0.6
2014-Nov-25 16:33N 40°38' W 074°12'2 1.8
2014-Nov-25 15:33N 40°38' W 074°10'0 0.0
2014-Nov-25 14:33N 40°38' W 074°10'0 0.0
2014-Nov-25 13:33N 40°38' W 074°10'2 2.4
2014-Nov-25 12:33N 40°41' W 074°09'1 0.8
2014-Nov-25 11:33N 40°40' W 074°09'2 1.6
2014-Nov-25 10:33N 40°38' W 074°08'2 1.7
2014-Nov-25 09:33N 40°38' W 074°10'0 0.0
2014-Nov-25 08:33N 40°38' W 074°10'0 0.0
2014-Nov-25 07:33N 40°38' W 074°10'0 0.0
2014-Nov-25 06:33N 40°38' W 074°10'0 0.0
2014-Nov-25 05:33N 40°38' W 074°10'0 0.0
2014-Nov-25 04:33N 40°38' W 074°10'0 0.0
2014-Nov-25 03:33N 40°38' W 074°10'0 0.0
2014-Nov-25 02:33N 40°38' W 074°10'0 0.0
2014-Nov-25 01:33N 40°38' W 074°10'0 0.0
2014-Nov-25 00:33N 40°38' W 074°10'0 0.0
2014-Nov-24 23:33N 40°38' W 074°10'3 3.4
2014-Nov-24 22:33N 40°42' W 074°08'3 3.2
2014-Nov-24 21:31N 40°38' W 074°10'2 2.1
2014-Nov-24 20:32N 40°39' W 074°07'12 0.8
2014-Nov-24 05:05N 40°27' W 074°03'0 0.0
2014-Nov-24 04:33N 40°27' W 074°03'0 0.0
2014-Nov-23 23:30N 40°27' W 074°03'0 0.0
2014-Nov-23 22:23N 40°27' W 074°03'0 0.0
2014-Nov-23 17:19N 40°27' W 074°03'0 0.0
2014-Nov-22 15:14N 40°27' W 074°03'0 0.0
2014-Nov-22 10:05N 40°27' W 074°03'0 0.0
2014-Nov-22 09:27N 40°27' W 074°03'0 0.0
2014-Nov-22 02:19N 40°27' W 074°03'  
Track history (hours):
 
Tides and Currents Weather Stations Pressure Air Temp Water Temp Dewpoint Dewpoint Depression Visibility Wind Speed Wind Dir Waves Ship Positions

Elizabeth Mc Allister

Owner: MC ALLISTER TOWING & TRANSPORTATION INC, NEW YORK, NY. More information available from US FCC via Universal Licensing System and Coast Guard Vessel Documentation Center.

Last reported at 2014-Nov-28 14:33 UTC. Time now 2014-Nov-28 14:36 UTC.
Position N 40°38' W 074°10'.

Length 31 m.

Type: Tug. MMSI: 366945680.

Date/timePositionNaut miles runAvg speedWind from/ knotsBaromVisibWave heightAir tempDewpointWater temp
2014-Nov-28 14:33N 40°38' W 074°10'0 0.0
2014-Nov-28 13:32N 40°38' W 074°10'2 2.2
2014-Nov-28 12:32N 40°40' W 074°08'1 0.9
2014-Nov-28 11:33N 40°41' W 074°09'3 2.8
2014-Nov-28 10:33N 40°39' W 074°07'2 2.0
2014-Nov-28 09:33N 40°38' W 074°10'0 0.0
2014-Nov-28 08:33N 40°38' W 074°10'0 0.0
2014-Nov-28 07:34N 40°38' W 074°10'6 3.9
2014-Nov-28 06:08N 40°33' W 074°13'5 2.8
2014-Nov-28 04:31N 40°38' W 074°12'0 0.0
2014-Nov-28 03:33N 40°38' W 074°12'2 1.8
2014-Nov-28 02:33N 40°38' W 074°10'0 0.0
2014-Nov-28 01:33N 40°38' W 074°10'0 0.0
2014-Nov-28 00:26N 40°38' W 074°10'0 0.0
2014-Nov-27 23:24N 40°38' W 074°10'0 0.0
2014-Nov-27 21:24N 40°38' W 074°10'0 0.0
2014-Nov-27 20:33N 40°38' W 074°10'0 0.0
2014-Nov-27 19:32N 40°38' W 074°10'0 0.0
2014-Nov-27 18:31N 40°38' W 074°10'0 0.0
2014-Nov-27 17:33N 40°38' W 074°10'0 0.0
2014-Nov-27 16:33N 40°38' W 074°10'0 0.0
2014-Nov-27 15:33N 40°38' W 074°10'0 0.0
2014-Nov-27 14:33N 40°38' W 074°10'0 0.0
2014-Nov-27 13:33N 40°38' W 074°10'1 1.4
2014-Nov-27 12:33N 40°38' W 074°12'0 0.1
2014-Nov-27 11:33N 40°38' W 074°12'0 0.0
2014-Nov-27 09:33N 40°38' W 074°12'0 0.0
2014-Nov-27 08:33N 40°38' W 074°12'0 0.0
2014-Nov-27 07:31N 40°38' W 074°12'6 6.2
2014-Nov-27 06:33N 40°40' W 074°04'0 0.4
2014-Nov-27 05:33N 40°40' W 074°04'0 0.0
2014-Nov-27 04:34N 40°40' W 074°04'0 0.0
2014-Nov-27 03:33N 40°40' W 074°04'0 0.0
2014-Nov-27 02:33N 40°40' W 074°04'0 0.0
2014-Nov-27 01:34N 40°40' W 074°04'0 0.0
2014-Nov-27 00:33N 40°40' W 074°04'0 0.4
2014-Nov-26 23:33N 40°40' W 074°04'2 1.9
2014-Nov-26 22:28N 40°39' W 074°07'0 0.1
2014-Nov-26 21:33N 40°39' W 074°07'0 0.5
2014-Nov-26 20:32N 40°39' W 074°06'2 2.3
2014-Nov-26 19:26N 40°40' W 074°09'0 0.1
2014-Nov-26 18:33N 40°40' W 074°09'0 0.4
2014-Nov-26 17:33N 40°39' W 074°09'1 1.1
2014-Nov-26 16:33N 40°38' W 074°10'0 0.0
2014-Nov-26 15:33N 40°38' W 074°10'0 0.0
2014-Nov-26 14:34N 40°38' W 074°10'0 0.0
2014-Nov-26 13:33N 40°38' W 074°10'0 0.0
2014-Nov-26 12:33N 40°38' W 074°10'1 0.7
2014-Nov-26 11:20N 40°39' W 074°11'5 6.6
2014-Nov-26 10:33N 40°39' W 074°04'2 1.7
2014-Nov-26 09:33N 40°39' W 074°06'3 2.7
2014-Nov-26 08:33N 40°38' W 074°10'0 0.0
2014-Nov-26 07:34N 40°38' W 074°10'0 0.0
2014-Nov-26 06:33N 40°38' W 074°10'0 0.0
2014-Nov-26 05:34N 40°38' W 074°10'0 0.0
2014-Nov-26 04:33N 40°38' W 074°10'0 0.0
2014-Nov-26 03:34N 40°38' W 074°10'0 0.0
2014-Nov-26 02:33N 40°38' W 074°10'0 0.0
2014-Nov-26 01:33N 40°38' W 074°10'0 0.0
2014-Nov-26 00:33N 40°38' W 074°10'0 0.0
2014-Nov-25 23:34N 40°38' W 074°10'0 0.0
2014-Nov-25 22:33N 40°38' W 074°10'5 5.0
2014-Nov-25 21:34N 40°38' W 074°03'5 4.9
2014-Nov-25 20:33N 40°38' W 074°10'0 0.0
2014-Nov-25 19:33N 40°38' W 074°10'2 0.6
2014-Nov-25 16:33N 40°38' W 074°12'2 1.8
2014-Nov-25 15:33N 40°38' W 074°10'0 0.0
2014-Nov-25 14:33N 40°38' W 074°10'0 0.0
2014-Nov-25 13:33N 40°38' W 074°10'2 2.4
2014-Nov-25 12:33N 40°41' W 074°09'1 0.8
2014-Nov-25 11:33N 40°40' W 074°09'2 1.6
2014-Nov-25 10:33N 40°38' W 074°08'2 1.7
2014-Nov-25 09:33N 40°38' W 074°10'0 0.0
2014-Nov-25 08:33N 40°38' W 074°10'0 0.0
2014-Nov-25 07:33N 40°38' W 074°10'0 0.0
2014-Nov-25 06:33N 40°38' W 074°10'0 0.0
2014-Nov-25 05:33N 40°38' W 074°10'0 0.0
2014-Nov-25 04:33N 40°38' W 074°10'0 0.0
2014-Nov-25 03:33N 40°38' W 074°10'0 0.0
2014-Nov-25 02:33N 40°38' W 074°10'0 0.0
2014-Nov-25 01:33N 40°38' W 074°10'0 0.0
2014-Nov-25 00:33N 40°38' W 074°10'0 0.0
2014-Nov-24 23:33N 40°38' W 074°10'3 3.4
2014-Nov-24 22:33N 40°42' W 074°08'3 3.2
2014-Nov-24 21:31N 40°38' W 074°10'2 2.1
2014-Nov-24 20:32N 40°39' W 074°07'12 0.8
2014-Nov-24 05:05N 40°27' W 074°03'0 0.0
2014-Nov-24 04:33N 40°27' W 074°03'0 0.0
2014-Nov-23 23:30N 40°27' W 074°03'0 0.0
2014-Nov-23 22:23N 40°27' W 074°03'0 0.0
2014-Nov-23 17:19N 40°27' W 074°03'0 0.0
2014-Nov-22 15:14N 40°27' W 074°03'0 0.0
2014-Nov-22 10:05N 40°27' W 074°03'0 0.0
2014-Nov-22 09:27N 40°27' W 074°03'0 0.0
2014-Nov-22 02:19N 40°27' W 074°03'  

Dump ship's entire track history